
<gpx xmlns="http://www.topografix.com/GPX/1/1" xmlns:gpxx="http://www.garmin.com/xmlschemas/GpxExtensions/v3" xmlns:xsi="http://www.w3.org/2001/XMLSchema-instance" version="1.1" creator="Adze - http://kobotsw.com/apps/adze" xsi:schemaLocation="http://www.topografix.com/GPX/1/1 http://www.topografix.com/GPX/1/1/gpx.xsd http://www.garmin.com/xmlschemas/GpxExtensions/v3 http://www.garmin.com/xmlschemas/GpxExtensionsv3.xsd">
    <metadata>
        <name>Untitled Document</name>
        <link href="http://www.garmin.com"></link>
        <time>2018-02-27T03:23:25.481Z</time>
    </metadata>
    <wpt lon="100.849132" lat="15.007141">
        <ele>136.000000</ele>
        <name>Narai Hill</name>
        <cmt>23-FEB-13 13:01:12</cmt>
        <desc>23-FEB-13 13:01:12</desc>
        <sym>Lodging</sym>
        <extensions>
            <gpxx:WaypointExtension xmlns:gpxx="http://www.garmin.com/xmlschemas/GpxExtensions/v3">
                <gpxx:DisplayMode>SymbolOnly</gpxx:DisplayMode>
            </gpxx:WaypointExtension>
        </extensions>
    </wpt>
    <wpt lon="100.861632" lat="15.016456">
        <time>2013-02-24T10:44:18Z</time>
        <name>Water Sun</name>
        <cmt>Rural Roads Lb. 3014</cmt>
        <desc>Rural Roads Lb. 3014</desc>
        <sym>Drinking Water</sym>
        <extensions>
            <gpxx:WaypointExtension xmlns:gpxx="http://www.garmin.com/xmlschemas/GpxExtensions/v3">
                <gpxx:DisplayMode>SymbolOnly</gpxx:DisplayMode>
            </gpxx:WaypointExtension>
        </extensions>
    </wpt>
    <trk>
        <name>Sun</name>
        <extensions>
            <gpxx:TrackExtension xmlns:gpxx="http://www.garmin.com/xmlschemas/GpxExtensions/v3">
                <gpxx:DisplayColor>Green</gpxx:DisplayColor>
            </gpxx:TrackExtension>
        </extensions>
        <trkseg>
            <trkpt lon="100.849192" lat="15.007063">
                <ele>151.544922</ele>
                <time>2013-02-24T03:02:31Z</time>
            </trkpt>
            <trkpt lon="100.849176" lat="15.007423">
                <ele>150.103027</ele>
                <time>2013-02-24T03:03:04Z</time>
            </trkpt>
            <trkpt lon="100.848929" lat="15.007298">
                <ele>148.180420</ele>
                <time>2013-02-24T03:03:12Z</time>
            </trkpt>
            <trkpt lon="100.849156" lat="15.006585">
                <ele>145.296387</ele>
                <time>2013-02-24T03:03:28Z</time>
            </trkpt>
            <trkpt lon="100.849331" lat="15.005093">
                <ele>157.312866</ele>
                <time>2013-02-24T03:04:15Z</time>
            </trkpt>
            <trkpt lon="100.849042" lat="15.003828">
                <ele>171.732666</ele>
                <time>2013-02-24T03:05:15Z</time>
            </trkpt>
            <trkpt lon="100.849221" lat="15.002932">
                <ele>178.942627</ele>
                <time>2013-02-24T03:05:53Z</time>
            </trkpt>
            <trkpt lon="100.849328" lat="15.002503">
                <ele>181.345825</ele>
                <time>2013-02-24T03:06:10Z</time>
            </trkpt>
            <trkpt lon="100.849568" lat="15.002192">
                <ele>181.826416</ele>
                <time>2013-02-24T03:06:24Z</time>
            </trkpt>
            <trkpt lon="100.850556" lat="15.002679">
                <ele>173.655273</ele>
                <time>2013-02-24T03:06:41Z</time>
            </trkpt>
            <trkpt lon="100.852446" lat="15.003198">
                <ele>152.025757</ele>
                <time>2013-02-24T03:06:59Z</time>
            </trkpt>
            <trkpt lon="100.852615" lat="15.003025">
                <ele>147.699707</ele>
                <time>2013-02-24T03:07:05Z</time>
            </trkpt>
            <trkpt lon="100.852220" lat="15.001429">
                <ele>165.484131</ele>
                <time>2013-02-24T03:08:00Z</time>
            </trkpt>
            <trkpt lon="100.852030" lat="15.001118">
                <ele>168.848755</ele>
                <time>2013-02-24T03:08:16Z</time>
            </trkpt>
            <trkpt lon="100.852201" lat="14.999955">
                <ele>180.865234</ele>
                <time>2013-02-24T03:09:17Z</time>
            </trkpt>
            <trkpt lon="100.852049" lat="14.999617">
                <ele>183.749023</ele>
                <time>2013-02-24T03:09:36Z</time>
            </trkpt>
            <trkpt lon="100.849590" lat="14.999908">
                <ele>197.207519</ele>
                <time>2013-02-24T03:11:00Z</time>
            </trkpt>
            <trkpt lon="100.849472" lat="15.000830">
                <ele>193.362305</ele>
                <time>2013-02-24T03:11:23Z</time>
            </trkpt>
            <trkpt lon="100.849282" lat="15.001170">
                <ele>193.362305</ele>
                <time>2013-02-24T03:11:31Z</time>
            </trkpt>
            <trkpt lon="100.848654" lat="15.001272">
                <ele>198.168945</ele>
                <time>2013-02-24T03:11:55Z</time>
            </trkpt>
            <trkpt lon="100.843496" lat="15.001714">
                <ele>234.699097</ele>
                <time>2013-02-24T03:17:13Z</time>
            </trkpt>
            <trkpt lon="100.843145" lat="15.001020">
                <ele>243.831543</ele>
                <time>2013-02-24T03:19:09Z</time>
            </trkpt>
            <trkpt lon="100.843796" lat="15.000710">
                <ele>234.218384</ele>
                <time>2013-02-24T03:21:19Z</time>
            </trkpt>
            <trkpt lon="100.846873" lat="14.999870">
                <ele>210.185425</ele>
                <time>2013-02-24T03:22:36Z</time>
            </trkpt>
            <trkpt lon="100.846937" lat="14.999675">
                <ele>216.433960</ele>
                <time>2013-02-24T03:23:13Z</time>
            </trkpt>
            <trkpt lon="100.846723" lat="14.999552">
                <ele>217.395386</ele>
                <time>2013-02-24T03:23:44Z</time>
            </trkpt>
            <trkpt lon="100.846278" lat="14.998729">
                <ele>235.179688</ele>
                <time>2013-02-24T03:26:15Z</time>
            </trkpt>
            <trkpt lon="100.846693" lat="14.999526">
                <ele>216.914673</ele>
                <time>2013-02-24T03:29:16Z</time>
            </trkpt>
            <trkpt lon="100.847653" lat="14.999072">
                <ele>214.030640</ele>
                <time>2013-02-24T03:30:40Z</time>
            </trkpt>
            <trkpt lon="100.847963" lat="14.998919">
                <ele>209.704834</ele>
                <time>2013-02-24T03:31:03Z</time>
            </trkpt>
            <trkpt lon="100.849735" lat="14.997979">
                <ele>196.246338</ele>
                <time>2013-02-24T03:32:54Z</time>
            </trkpt>
            <trkpt lon="100.849241" lat="14.997524">
                <ele>202.494873</ele>
                <time>2013-02-24T03:33:26Z</time>
            </trkpt>
            <trkpt lon="100.849281" lat="14.997123">
                <ele>208.743408</ele>
                <time>2013-02-24T03:34:32Z</time>
            </trkpt>
            <trkpt lon="100.849255" lat="14.996964">
                <ele>207.301392</ele>
                <time>2013-02-24T03:34:48Z</time>
            </trkpt>
            <trkpt lon="100.849262" lat="14.996841">
                <ele>203.456177</ele>
                <time>2013-02-24T03:34:57Z</time>
            </trkpt>
            <trkpt lon="100.848809" lat="14.996201">
                <ele>202.014282</ele>
                <time>2013-02-24T03:35:25Z</time>
            </trkpt>
            <trkpt lon="100.849449" lat="14.996249">
                <ele>194.804321</ele>
                <time>2013-02-24T03:35:56Z</time>
            </trkpt>
            <trkpt lon="100.849795" lat="14.996118">
                <ele>191.439575</ele>
                <time>2013-02-24T03:36:12Z</time>
            </trkpt>
            <trkpt lon="100.850301" lat="14.996109">
                <ele>183.268433</ele>
                <time>2013-02-24T03:36:40Z</time>
            </trkpt>
            <trkpt lon="100.850306" lat="14.996088">
                <ele>185.191162</ele>
                <time>2013-02-24T03:36:59Z</time>
            </trkpt>
            <trkpt lon="100.850333" lat="14.995987">
                <ele>185.671753</ele>
                <time>2013-02-24T03:37:11Z</time>
            </trkpt>
            <trkpt lon="100.850336" lat="14.995904">
                <ele>185.671753</ele>
                <time>2013-02-24T03:37:21Z</time>
            </trkpt>
            <trkpt lon="100.850307" lat="14.995791">
                <ele>184.710571</ele>
                <time>2013-02-24T03:37:27Z</time>
            </trkpt>
            <trkpt lon="100.849686" lat="14.994938">
                <ele>180.384522</ele>
                <time>2013-02-24T03:38:29Z</time>
            </trkpt>
            <trkpt lon="100.848480" lat="14.994924">
                <ele>188.555786</ele>
                <time>2013-02-24T03:38:59Z</time>
            </trkpt>
            <trkpt lon="100.848373" lat="14.994839">
                <ele>188.075073</ele>
                <time>2013-02-24T03:39:02Z</time>
            </trkpt>
            <trkpt lon="100.847977" lat="14.993092">
                <ele>186.633179</ele>
                <time>2013-02-24T03:39:35Z</time>
            </trkpt>
            <trkpt lon="100.847757" lat="14.992736">
                <ele>189.036377</ele>
                <time>2013-02-24T03:39:48Z</time>
            </trkpt>
            <trkpt lon="100.847217" lat="14.992262">
                <ele>195.765625</ele>
                <time>2013-02-24T03:40:22Z</time>
            </trkpt>
            <trkpt lon="100.847490" lat="14.991293">
                <ele>204.898071</ele>
                <time>2013-02-24T03:41:18Z</time>
            </trkpt>
            <trkpt lon="100.847919" lat="14.991170">
                <ele>202.975464</ele>
                <time>2013-02-24T03:41:31Z</time>
            </trkpt>
            <trkpt lon="100.848107" lat="14.991297">
                <ele>200.572266</ele>
                <time>2013-02-24T03:41:36Z</time>
            </trkpt>
            <trkpt lon="100.848689" lat="14.991080">
                <ele>195.284912</ele>
                <time>2013-02-24T03:41:47Z</time>
            </trkpt>
            <trkpt lon="100.849370" lat="14.991188">
                <ele>189.036377</ele>
                <time>2013-02-24T03:41:57Z</time>
            </trkpt>
            <trkpt lon="100.849522" lat="14.990986">
                <ele>189.997681</ele>
                <time>2013-02-24T03:42:03Z</time>
            </trkpt>
            <trkpt lon="100.849358" lat="14.990299">
                <ele>199.610840</ele>
                <time>2013-02-24T03:42:36Z</time>
            </trkpt>
            <trkpt lon="100.849614" lat="14.990120">
                <ele>201.052856</ele>
                <time>2013-02-24T03:42:49Z</time>
            </trkpt>
            <trkpt lon="100.852490" lat="14.988620">
                <ele>191.439575</ele>
                <time>2013-02-24T03:43:51Z</time>
            </trkpt>
            <trkpt lon="100.852669" lat="14.988888">
                <ele>189.516968</ele>
                <time>2013-02-24T03:43:55Z</time>
            </trkpt>
            <trkpt lon="100.853034" lat="14.990246">
                <ele>186.633179</ele>
                <time>2013-02-24T03:44:10Z</time>
            </trkpt>
            <trkpt lon="100.852911" lat="14.991079">
                <ele>185.671753</ele>
                <time>2013-02-24T03:44:20Z</time>
            </trkpt>
            <trkpt lon="100.852811" lat="14.992563">
                <ele>180.384522</ele>
                <time>2013-02-24T03:44:38Z</time>
            </trkpt>
            <trkpt lon="100.853092" lat="14.993531">
                <ele>180.865234</ele>
                <time>2013-02-24T03:44:50Z</time>
            </trkpt>
            <trkpt lon="100.853279" lat="14.993720">
                <ele>181.345825</ele>
                <time>2013-02-24T03:44:54Z</time>
            </trkpt>
            <trkpt lon="100.853403" lat="14.994117">
                <ele>178.942627</ele>
                <time>2013-02-24T03:45:00Z</time>
            </trkpt>
            <trkpt lon="100.854367" lat="14.995648">
                <ele>170.771362</ele>
                <time>2013-02-24T03:45:20Z</time>
            </trkpt>
            <trkpt lon="100.854253" lat="14.995998">
                <ele>170.290649</ele>
                <time>2013-02-24T03:45:26Z</time>
            </trkpt>
            <trkpt lon="100.853686" lat="14.996348">
                <ele>170.771362</ele>
                <time>2013-02-24T03:45:36Z</time>
            </trkpt>
            <trkpt lon="100.852695" lat="14.995919">
                <ele>170.290649</ele>
                <time>2013-02-24T03:45:57Z</time>
            </trkpt>
            <trkpt lon="100.850635" lat="14.996388">
                <ele>185.191162</ele>
                <time>2013-02-24T03:47:22Z</time>
            </trkpt>
            <trkpt lon="100.850311" lat="14.996666">
                <ele>189.997681</ele>
                <time>2013-02-24T03:47:51Z</time>
            </trkpt>
            <trkpt lon="100.850547" lat="14.997045">
                <ele>196.726929</ele>
                <time>2013-02-24T03:48:20Z</time>
            </trkpt>
            <trkpt lon="100.850775" lat="14.997300">
                <ele>199.610840</ele>
                <time>2013-02-24T03:48:40Z</time>
            </trkpt>
            <trkpt lon="100.851199" lat="14.997815">
                <ele>201.052856</ele>
                <time>2013-02-24T03:49:05Z</time>
            </trkpt>
            <trkpt lon="100.851473" lat="14.998157">
                <ele>199.130127</ele>
                <time>2013-02-24T03:49:17Z</time>
            </trkpt>
            <trkpt lon="100.852040" lat="14.999517">
                <ele>184.229858</ele>
                <time>2013-02-24T03:49:40Z</time>
            </trkpt>
            <trkpt lon="100.851950" lat="14.999566">
                <ele>182.307129</ele>
                <time>2013-02-24T03:49:48Z</time>
            </trkpt>
            <trkpt lon="100.852238" lat="14.999960">
                <ele>179.423218</ele>
                <time>2013-02-24T03:50:36Z</time>
            </trkpt>
            <trkpt lon="100.852098" lat="15.001259">
                <ele>163.561523</ele>
                <time>2013-02-24T03:50:59Z</time>
            </trkpt>
            <trkpt lon="100.852305" lat="15.001555">
                <ele>161.158203</ele>
                <time>2013-02-24T03:51:06Z</time>
            </trkpt>
            <trkpt lon="100.852420" lat="15.002320">
                <ele>155.390259</ele>
                <time>2013-02-24T03:51:16Z</time>
            </trkpt>
            <trkpt lon="100.853148" lat="15.004811">
                <ele>134.241211</ele>
                <time>2013-02-24T03:51:45Z</time>
            </trkpt>
            <trkpt lon="100.854740" lat="15.006488">
                <ele>120.302124</ele>
                <time>2013-02-24T03:52:06Z</time>
            </trkpt>
            <trkpt lon="100.855070" lat="15.007008">
                <ele>118.860107</ele>
                <time>2013-02-24T03:52:13Z</time>
            </trkpt>
            <trkpt lon="100.855335" lat="15.007062">
                <ele>117.418213</ele>
                <time>2013-02-24T03:52:21Z</time>
            </trkpt>
            <trkpt lon="100.856031" lat="15.006481">
                <ele>119.821411</ele>
                <time>2013-02-24T03:52:43Z</time>
            </trkpt>
            <trkpt lon="100.856564" lat="15.006211">
                <ele>120.782837</ele>
                <time>2013-02-24T03:53:12Z</time>
            </trkpt>
            <trkpt lon="100.856892" lat="15.006607">
                <ele>120.302124</ele>
                <time>2013-02-24T03:53:49Z</time>
            </trkpt>
            <trkpt lon="100.857151" lat="15.006585">
                <ele>118.860107</ele>
                <time>2013-02-24T03:54:01Z</time>
            </trkpt>
            <trkpt lon="100.857950" lat="15.005948">
                <ele>112.611572</ele>
                <time>2013-02-24T03:54:35Z</time>
            </trkpt>
            <trkpt lon="100.859216" lat="15.006621">
                <ele>105.882446</ele>
                <time>2013-02-24T03:55:06Z</time>
            </trkpt>
            <trkpt lon="100.859592" lat="15.006592">
                <ele>104.440430</ele>
                <time>2013-02-24T03:55:12Z</time>
            </trkpt>
            <trkpt lon="100.860335" lat="15.006227">
                <ele>103.959717</ele>
                <time>2013-02-24T03:55:30Z</time>
            </trkpt>
            <trkpt lon="100.860787" lat="15.006229">
                <ele>105.401733</ele>
                <time>2013-02-24T03:55:42Z</time>
            </trkpt>
            <trkpt lon="100.861385" lat="15.006675">
                <ele>104.440430</ele>
                <time>2013-02-24T03:55:57Z</time>
            </trkpt>
            <trkpt lon="100.861548" lat="15.007839">
                <ele>100.114502</ele>
                <time>2013-02-24T03:56:18Z</time>
            </trkpt>
            <trkpt lon="100.861745" lat="15.008014">
                <ele>101.075684</ele>
                <time>2013-02-24T03:56:27Z</time>
            </trkpt>
            <trkpt lon="100.864544" lat="15.002822">
                <ele>110.688843</ele>
                <time>2013-02-24T03:58:43Z</time>
            </trkpt>
            <trkpt lon="100.865596" lat="14.998602">
                <ele>121.263550</ele>
                <time>2013-02-24T04:00:46Z</time>
            </trkpt>
            <trkpt lon="100.865685" lat="14.997739">
                <ele>121.744141</ele>
                <time>2013-02-24T04:01:22Z</time>
            </trkpt>
            <trkpt lon="100.866326" lat="14.995511">
                <ele>135.202515</ele>
                <time>2013-02-24T04:02:43Z</time>
            </trkpt>
            <trkpt lon="100.866343" lat="14.994449">
                <ele>141.931763</ele>
                <time>2013-02-24T04:03:17Z</time>
            </trkpt>
            <trkpt lon="100.866383" lat="14.994464">
                <ele>143.854370</ele>
                <time>2013-02-24T04:03:43Z</time>
            </trkpt>
            <trkpt lon="100.866610" lat="14.994485">
                <ele>143.373657</ele>
                <time>2013-02-24T04:03:54Z</time>
            </trkpt>
            <trkpt lon="100.867123" lat="14.994071">
                <ele>146.738403</ele>
                <time>2013-02-24T04:04:40Z</time>
            </trkpt>
            <trkpt lon="100.867491" lat="14.994145">
                <ele>148.180420</ele>
                <time>2013-02-24T04:04:54Z</time>
            </trkpt>
            <trkpt lon="100.869404" lat="14.993176">
                <ele>157.312866</ele>
                <time>2013-02-24T04:06:24Z</time>
            </trkpt>
            <trkpt lon="100.869727" lat="14.993306">
                <ele>158.754761</ele>
                <time>2013-02-24T04:06:36Z</time>
            </trkpt>
            <trkpt lon="100.870369" lat="14.993993">
                <ele>153.467651</ele>
                <time>2013-02-24T04:07:04Z</time>
            </trkpt>
            <trkpt lon="100.869803" lat="14.995125">
                <ele>146.738403</ele>
                <time>2013-02-24T04:07:40Z</time>
            </trkpt>
            <trkpt lon="100.869490" lat="14.996100">
                <ele>140.489868</ele>
                <time>2013-02-24T04:08:01Z</time>
            </trkpt>
            <trkpt lon="100.869610" lat="14.996794">
                <ele>132.799316</ele>
                <time>2013-02-24T04:08:18Z</time>
            </trkpt>
            <trkpt lon="100.870010" lat="14.997350">
                <ele>127.992554</ele>
                <time>2013-02-24T04:08:35Z</time>
            </trkpt>
            <trkpt lon="100.869969" lat="14.997726">
                <ele>124.147339</ele>
                <time>2013-02-24T04:08:47Z</time>
            </trkpt>
            <trkpt lon="100.870354" lat="14.998045">
                <ele>120.302124</ele>
                <time>2013-02-24T04:09:02Z</time>
            </trkpt>
            <trkpt lon="100.871225" lat="14.997732">
                <ele>120.302124</ele>
                <time>2013-02-24T04:09:23Z</time>
            </trkpt>
            <trkpt lon="100.871535" lat="14.998022">
                <ele>117.418213</ele>
                <time>2013-02-24T04:09:35Z</time>
            </trkpt>
            <trkpt lon="100.872001" lat="15.000053">
                <ele>104.440430</ele>
                <time>2013-02-24T04:10:24Z</time>
            </trkpt>
            <trkpt lon="100.872280" lat="15.000191">
                <ele>103.959717</ele>
                <time>2013-02-24T04:10:34Z</time>
            </trkpt>
            <trkpt lon="100.872497" lat="15.000008">
                <ele>102.517700</ele>
                <time>2013-02-24T04:10:43Z</time>
            </trkpt>
            <trkpt lon="100.872891" lat="14.998914">
                <ele>102.517700</ele>
                <time>2013-02-24T04:11:17Z</time>
            </trkpt>
            <trkpt lon="100.873658" lat="14.998421">
                <ele>103.479004</ele>
                <time>2013-02-24T04:11:40Z</time>
            </trkpt>
            <trkpt lon="100.874605" lat="14.998781">
                <ele>113.092285</ele>
                <time>2013-02-24T04:12:25Z</time>
            </trkpt>
            <trkpt lon="100.874773" lat="14.998970">
                <ele>114.534180</ele>
                <time>2013-02-24T04:12:41Z</time>
            </trkpt>
            <trkpt lon="100.875385" lat="14.999413">
                <ele>115.014893</ele>
                <time>2013-02-24T04:13:36Z</time>
            </trkpt>
            <trkpt lon="100.875312" lat="15.000037">
                <ele>111.169556</ele>
                <time>2013-02-24T04:13:59Z</time>
            </trkpt>
            <trkpt lon="100.875111" lat="15.000478">
                <ele>106.843628</ele>
                <time>2013-02-24T04:14:11Z</time>
            </trkpt>
            <trkpt lon="100.874756" lat="15.000756">
                <ele>103.959717</ele>
                <time>2013-02-24T04:14:25Z</time>
            </trkpt>
            <trkpt lon="100.874131" lat="15.001238">
                <ele>95.307739</ele>
                <time>2013-02-24T04:14:48Z</time>
            </trkpt>
            <trkpt lon="100.873638" lat="15.001189">
                <ele>99.153076</ele>
                <time>2013-02-24T04:15:07Z</time>
            </trkpt>
            <trkpt lon="100.873373" lat="15.000971">
                <ele>90.981934</ele>
                <time>2013-02-24T04:15:35Z</time>
            </trkpt>
            <trkpt lon="100.873218" lat="15.001028">
                <ele>99.633789</ele>
                <time>2013-02-24T04:15:57Z</time>
            </trkpt>
            <trkpt lon="100.872894" lat="15.001309">
                <ele>98.672485</ele>
                <time>2013-02-24T04:16:10Z</time>
            </trkpt>
            <trkpt lon="100.872642" lat="15.001584">
                <ele>95.788452</ele>
                <time>2013-02-24T04:16:18Z</time>
            </trkpt>
            <trkpt lon="100.872632" lat="15.002455">
                <ele>98.191895</ele>
                <time>2013-02-24T04:16:31Z</time>
            </trkpt>
            <trkpt lon="100.872808" lat="15.003402">
                <ele>93.865845</ele>
                <time>2013-02-24T04:16:50Z</time>
            </trkpt>
            <trkpt lon="100.872420" lat="15.004083">
                <ele>95.788452</ele>
                <time>2013-02-24T04:17:08Z</time>
            </trkpt>
            <trkpt lon="100.872425" lat="15.004294">
                <ele>95.307739</ele>
                <time>2013-02-24T04:17:13Z</time>
            </trkpt>
            <trkpt lon="100.872492" lat="15.004551">
                <ele>94.346558</ele>
                <time>2013-02-24T04:17:21Z</time>
            </trkpt>
            <trkpt lon="100.871312" lat="15.004668">
                <ele>97.711182</ele>
                <time>2013-02-24T04:18:01Z</time>
            </trkpt>
            <trkpt lon="100.869649" lat="15.005083">
                <ele>99.633789</ele>
                <time>2013-02-24T04:18:42Z</time>
            </trkpt>
            <trkpt lon="100.869640" lat="15.005349">
                <ele>98.672485</ele>
                <time>2013-02-24T04:18:50Z</time>
            </trkpt>
            <trkpt lon="100.869063" lat="15.005591">
                <ele>96.749878</ele>
                <time>2013-02-24T04:19:05Z</time>
            </trkpt>
            <trkpt lon="100.868361" lat="15.006355">
                <ele>96.269287</ele>
                <time>2013-02-24T04:19:28Z</time>
            </trkpt>
            <trkpt lon="100.867747" lat="15.008152">
                <ele>92.904541</ele>
                <time>2013-02-24T04:20:03Z</time>
            </trkpt>
            <trkpt lon="100.867536" lat="15.008413">
                <ele>92.904541</ele>
                <time>2013-02-24T04:20:09Z</time>
            </trkpt>
            <trkpt lon="100.864994" lat="15.009513">
                <ele>92.904541</ele>
                <time>2013-02-24T04:20:57Z</time>
            </trkpt>
            <trkpt lon="100.864457" lat="15.010218">
                <ele>93.385132</ele>
                <time>2013-02-24T04:21:13Z</time>
            </trkpt>
            <trkpt lon="100.864198" lat="15.010855">
                <ele>91.943237</ele>
                <time>2013-02-24T04:21:27Z</time>
            </trkpt>
            <trkpt lon="100.864185" lat="15.011289">
                <ele>91.943237</ele>
                <time>2013-02-24T04:21:37Z</time>
            </trkpt>
            <trkpt lon="100.864400" lat="15.011735">
                <ele>91.943237</ele>
                <time>2013-02-24T04:21:46Z</time>
            </trkpt>
            <trkpt lon="100.864268" lat="15.012312">
                <ele>90.981934</ele>
                <time>2013-02-24T04:21:56Z</time>
            </trkpt>
            <trkpt lon="100.863864" lat="15.012646">
                <ele>91.943237</ele>
                <time>2013-02-24T04:22:05Z</time>
            </trkpt>
            <trkpt lon="100.862869" lat="15.013046">
                <ele>91.943237</ele>
                <time>2013-02-24T04:22:22Z</time>
            </trkpt>
            <trkpt lon="100.861920" lat="15.014557">
                <ele>89.539917</ele>
                <time>2013-02-24T04:22:51Z</time>
            </trkpt>
            <trkpt lon="100.861683" lat="15.015145">
                <ele>89.539917</ele>
                <time>2013-02-24T04:23:02Z</time>
            </trkpt>
            <trkpt lon="100.861317" lat="15.015515">
                <ele>89.539917</ele>
                <time>2013-02-24T04:23:11Z</time>
            </trkpt>
            <trkpt lon="100.861343" lat="15.016340">
                <ele>87.136597</ele>
                <time>2013-02-24T04:23:28Z</time>
            </trkpt>
            <trkpt lon="100.861683" lat="15.016298">
                <ele>92.904541</ele>
                <time>2013-02-24T04:25:16Z</time>
            </trkpt>
            <trkpt lon="100.861078" lat="15.016449">
                <ele>87.136597</ele>
                <time>2013-02-24T04:36:59Z</time>
            </trkpt>
            <trkpt lon="100.861005" lat="15.016614">
                <ele>87.136597</ele>
                <time>2013-02-24T04:37:04Z</time>
            </trkpt>
            <trkpt lon="100.861064" lat="15.018579">
                <ele>88.578735</ele>
                <time>2013-02-24T04:38:06Z</time>
            </trkpt>
            <trkpt lon="100.860288" lat="15.019142">
                <ele>89.059326</ele>
                <time>2013-02-24T04:38:37Z</time>
            </trkpt>
            <trkpt lon="100.859980" lat="15.019194">
                <ele>87.136597</ele>
                <time>2013-02-24T04:38:49Z</time>
            </trkpt>
            <trkpt lon="100.859014" lat="15.020580">
                <ele>91.943237</ele>
                <time>2013-02-24T04:39:38Z</time>
            </trkpt>
            <trkpt lon="100.859102" lat="15.020720">
                <ele>93.865845</ele>
                <time>2013-02-24T04:39:49Z</time>
            </trkpt>
            <trkpt lon="100.859718" lat="15.020491">
                <ele>98.672485</ele>
                <time>2013-02-24T04:40:24Z</time>
            </trkpt>
            <trkpt lon="100.860753" lat="15.020350">
                <ele>100.114502</ele>
                <time>2013-02-24T04:41:23Z</time>
            </trkpt>
            <trkpt lon="100.861122" lat="15.020235">
                <ele>99.153076</ele>
                <time>2013-02-24T04:41:40Z</time>
            </trkpt>
            <trkpt lon="100.861732" lat="15.020173">
                <ele>99.153076</ele>
                <time>2013-02-24T04:42:01Z</time>
            </trkpt>
            <trkpt lon="100.862152" lat="15.020732">
                <ele>98.672485</ele>
                <time>2013-02-24T04:42:28Z</time>
            </trkpt>
            <trkpt lon="100.862879" lat="15.020402">
                <ele>95.788452</ele>
                <time>2013-02-24T04:42:46Z</time>
            </trkpt>
            <trkpt lon="100.863084" lat="15.019886">
                <ele>92.423950</ele>
                <time>2013-02-24T04:43:02Z</time>
            </trkpt>
            <trkpt lon="100.863108" lat="15.019669">
                <ele>96.269287</ele>
                <time>2013-02-24T04:43:14Z</time>
            </trkpt>
            <trkpt lon="100.863099" lat="15.019380">
                <ele>97.711182</ele>
                <time>2013-02-24T04:43:29Z</time>
            </trkpt>
            <trkpt lon="100.863205" lat="15.019152">
                <ele>97.230469</ele>
                <time>2013-02-24T04:43:38Z</time>
            </trkpt>
            <trkpt lon="100.863656" lat="15.019016">
                <ele>99.633789</ele>
                <time>2013-02-24T04:44:05Z</time>
            </trkpt>
            <trkpt lon="100.863889" lat="15.018769">
                <ele>101.556397</ele>
                <time>2013-02-24T04:44:19Z</time>
            </trkpt>
            <trkpt lon="100.864180" lat="15.018598">
                <ele>102.517700</ele>
                <time>2013-02-24T04:44:33Z</time>
            </trkpt>
            <trkpt lon="100.865050" lat="15.019776">
                <ele>94.827148</ele>
                <time>2013-02-24T04:45:10Z</time>
            </trkpt>
            <trkpt lon="100.865390" lat="15.021558">
                <ele>97.230469</ele>
                <time>2013-02-24T04:46:10Z</time>
            </trkpt>
            <trkpt lon="100.865990" lat="15.021472">
                <ele>101.556397</ele>
                <time>2013-02-24T04:47:14Z</time>
            </trkpt>
            <trkpt lon="100.866372" lat="15.021173">
                <ele>101.075684</ele>
                <time>2013-02-24T04:47:54Z</time>
            </trkpt>
            <trkpt lon="100.867391" lat="15.020911">
                <ele>102.517700</ele>
                <time>2013-02-24T04:48:25Z</time>
            </trkpt>
            <trkpt lon="100.869184" lat="15.020376">
                <ele>102.517700</ele>
                <time>2013-02-24T04:49:16Z</time>
            </trkpt>
            <trkpt lon="100.870845" lat="15.020198">
                <ele>105.882446</ele>
                <time>2013-02-24T04:50:05Z</time>
            </trkpt>
            <trkpt lon="100.870979" lat="15.025611">
                <ele>106.363037</ele>
                <time>2013-02-24T04:51:47Z</time>
            </trkpt>
            <trkpt lon="100.869581" lat="15.025632">
                <ele>103.959717</ele>
                <time>2013-02-24T04:52:10Z</time>
            </trkpt>
            <trkpt lon="100.868402" lat="15.026206">
                <ele>101.075684</ele>
                <time>2013-02-24T04:52:28Z</time>
            </trkpt>
            <trkpt lon="100.866675" lat="15.026025">
                <ele>99.633789</ele>
                <time>2013-02-24T04:52:51Z</time>
            </trkpt>
            <trkpt lon="100.866027" lat="15.025593">
                <ele>97.711182</ele>
                <time>2013-02-24T04:53:01Z</time>
            </trkpt>
            <trkpt lon="100.865578" lat="15.025538">
                <ele>97.230469</ele>
                <time>2013-02-24T04:53:07Z</time>
            </trkpt>
            <trkpt lon="100.864949" lat="15.025860">
                <ele>95.788452</ele>
                <time>2013-02-24T04:53:16Z</time>
            </trkpt>
            <trkpt lon="100.862957" lat="15.026319">
                <ele>96.269287</ele>
                <time>2013-02-24T04:53:44Z</time>
            </trkpt>
            <trkpt lon="100.862110" lat="15.027010">
                <ele>98.191895</ele>
                <time>2013-02-24T04:54:02Z</time>
            </trkpt>
            <trkpt lon="100.861200" lat="15.027379">
                <ele>98.191895</ele>
                <time>2013-02-24T04:54:19Z</time>
            </trkpt>
            <trkpt lon="100.860411" lat="15.027492">
                <ele>97.230469</ele>
                <time>2013-02-24T04:54:31Z</time>
            </trkpt>
            <trkpt lon="100.858295" lat="15.027093">
                <ele>95.788452</ele>
                <time>2013-02-24T04:54:59Z</time>
            </trkpt>
            <trkpt lon="100.857369" lat="15.026833">
                <ele>93.865845</ele>
                <time>2013-02-24T04:55:10Z</time>
            </trkpt>
            <trkpt lon="100.855924" lat="15.026730">
                <ele>91.462524</ele>
                <time>2013-02-24T04:55:28Z</time>
            </trkpt>
            <trkpt lon="100.855442" lat="15.022546">
                <ele>86.175293</ele>
                <time>2013-02-24T04:56:21Z</time>
            </trkpt>
            <trkpt lon="100.855808" lat="15.021564">
                <ele>90.020630</ele>
                <time>2013-02-24T04:56:35Z</time>
            </trkpt>
            <trkpt lon="100.855710" lat="15.021547">
                <ele>90.020630</ele>
                <time>2013-02-24T04:56:41Z</time>
            </trkpt>
            <trkpt lon="100.853916" lat="15.022500">
                <ele>86.656006</ele>
                <time>2013-02-24T04:57:14Z</time>
            </trkpt>
            <trkpt lon="100.853811" lat="15.023089">
                <ele>85.213989</ele>
                <time>2013-02-24T04:57:24Z</time>
            </trkpt>
            <trkpt lon="100.853513" lat="15.023461">
                <ele>85.213989</ele>
                <time>2013-02-24T04:57:32Z</time>
            </trkpt>
            <trkpt lon="100.851634" lat="15.023032">
                <ele>87.136597</ele>
                <time>2013-02-24T04:58:07Z</time>
            </trkpt>
            <trkpt lon="100.850352" lat="15.023391">
                <ele>89.539917</ele>
                <time>2013-02-24T04:58:49Z</time>
            </trkpt>
            <trkpt lon="100.848191" lat="15.024834">
                <ele>77.523438</ele>
                <time>2013-02-24T05:00:02Z</time>
            </trkpt>
            <trkpt lon="100.848108" lat="15.024992">
                <ele>78.484741</ele>
                <time>2013-02-24T05:00:07Z</time>
            </trkpt>
            <trkpt lon="100.848674" lat="15.026018">
                <ele>85.694580</ele>
                <time>2013-02-24T05:00:30Z</time>
            </trkpt>
            <trkpt lon="100.849087" lat="15.026335">
                <ele>87.617188</ele>
                <time>2013-02-24T05:00:45Z</time>
            </trkpt>
            <trkpt lon="100.849301" lat="15.026300">
                <ele>86.175293</ele>
                <time>2013-02-24T05:00:56Z</time>
            </trkpt>
            <trkpt lon="100.849443" lat="15.026525">
                <ele>81.849365</ele>
                <time>2013-02-24T05:01:12Z</time>
            </trkpt>
            <trkpt lon="100.849352" lat="15.026796">
                <ele>82.330078</ele>
                <time>2013-02-24T05:01:19Z</time>
            </trkpt>
            <trkpt lon="100.848930" lat="15.027165">
                <ele>82.810791</ele>
                <time>2013-02-24T05:01:29Z</time>
            </trkpt>
            <trkpt lon="100.848980" lat="15.027479">
                <ele>83.291382</ele>
                <time>2013-02-24T05:01:38Z</time>
            </trkpt>
            <trkpt lon="100.849813" lat="15.027659">
                <ele>82.810791</ele>
                <time>2013-02-24T05:01:53Z</time>
            </trkpt>
            <trkpt lon="100.850282" lat="15.027906">
                <ele>84.733398</ele>
                <time>2013-02-24T05:02:01Z</time>
            </trkpt>
            <trkpt lon="100.851238" lat="15.028163">
                <ele>81.368774</ele>
                <time>2013-02-24T05:02:17Z</time>
            </trkpt>
            <trkpt lon="100.853211" lat="15.028038">
                <ele>96.749878</ele>
                <time>2013-02-24T05:03:46Z</time>
            </trkpt>
            <trkpt lon="100.853182" lat="15.028449">
                <ele>84.252685</ele>
                <time>2013-02-24T05:04:58Z</time>
            </trkpt>
            <trkpt lon="100.853638" lat="15.028965">
                <ele>78.004028</ele>
                <time>2013-02-24T05:05:15Z</time>
            </trkpt>
            <trkpt lon="100.853576" lat="15.029373">
                <ele>80.407471</ele>
                <time>2013-02-24T05:05:26Z</time>
            </trkpt>
            <trkpt lon="100.853439" lat="15.029617">
                <ele>85.213989</ele>
                <time>2013-02-24T05:05:43Z</time>
            </trkpt>
            <trkpt lon="100.853122" lat="15.030020">
                <ele>83.291382</ele>
                <time>2013-02-24T05:05:58Z</time>
            </trkpt>
            <trkpt lon="100.852878" lat="15.030499">
                <ele>86.175293</ele>
                <time>2013-02-24T05:06:12Z</time>
            </trkpt>
            <trkpt lon="100.852610" lat="15.031255">
                <ele>86.656006</ele>
                <time>2013-02-24T05:06:30Z</time>
            </trkpt>
            <trkpt lon="100.851809" lat="15.031909">
                <ele>79.926636</ele>
                <time>2013-02-24T05:06:49Z</time>
            </trkpt>
            <trkpt lon="100.851750" lat="15.032202">
                <ele>77.523438</ele>
                <time>2013-02-24T05:06:55Z</time>
            </trkpt>
            <trkpt lon="100.852969" lat="15.034997">
                <ele>87.136597</ele>
                <time>2013-02-24T05:07:55Z</time>
            </trkpt>
            <trkpt lon="100.852891" lat="15.035097">
                <ele>86.656006</ele>
                <time>2013-02-24T05:07:59Z</time>
            </trkpt>
            <trkpt lon="100.852037" lat="15.035461">
                <ele>82.330078</ele>
                <time>2013-02-24T05:08:21Z</time>
            </trkpt>
            <trkpt lon="100.850568" lat="15.034125">
                <ele>80.888184</ele>
                <time>2013-02-24T05:08:53Z</time>
            </trkpt>
            <trkpt lon="100.850170" lat="15.034008">
                <ele>81.368774</ele>
                <time>2013-02-24T05:08:59Z</time>
            </trkpt>
            <trkpt lon="100.849759" lat="15.034107">
                <ele>80.888184</ele>
                <time>2013-02-24T05:09:05Z</time>
            </trkpt>
            <trkpt lon="100.848911" lat="15.034881">
                <ele>80.888184</ele>
                <time>2013-02-24T05:09:21Z</time>
            </trkpt>
            <trkpt lon="100.847906" lat="15.036145">
                <ele>81.368774</ele>
                <time>2013-02-24T05:09:43Z</time>
            </trkpt>
            <trkpt lon="100.847340" lat="15.036418">
                <ele>80.888184</ele>
                <time>2013-02-24T05:09:51Z</time>
            </trkpt>
            <trkpt lon="100.846711" lat="15.036284">
                <ele>80.888184</ele>
                <time>2013-02-24T05:09:59Z</time>
            </trkpt>
            <trkpt lon="100.845535" lat="15.034724">
                <ele>79.446045</ele>
                <time>2013-02-24T05:10:26Z</time>
            </trkpt>
            <trkpt lon="100.845084" lat="15.033837">
                <ele>80.407471</ele>
                <time>2013-02-24T05:10:41Z</time>
            </trkpt>
            <trkpt lon="100.844742" lat="15.033441">
                <ele>81.849365</ele>
                <time>2013-02-24T05:10:52Z</time>
            </trkpt>
            <trkpt lon="100.845393" lat="15.032219">
                <ele>84.252685</ele>
                <time>2013-02-24T05:11:18Z</time>
            </trkpt>
            <trkpt lon="100.846540" lat="15.031349">
                <ele>82.810791</ele>
                <time>2013-02-24T05:11:41Z</time>
            </trkpt>
            <trkpt lon="100.846768" lat="15.030831">
                <ele>83.291382</ele>
                <time>2013-02-24T05:11:52Z</time>
            </trkpt>
            <trkpt lon="100.844977" lat="15.023296">
                <ele>91.462524</ele>
                <time>2013-02-24T05:14:32Z</time>
            </trkpt>
            <trkpt lon="100.844743" lat="15.021347">
                <ele>94.827148</ele>
                <time>2013-02-24T05:15:21Z</time>
            </trkpt>
            <trkpt lon="100.844511" lat="15.020678">
                <ele>95.307739</ele>
                <time>2013-02-24T05:15:36Z</time>
            </trkpt>
            <trkpt lon="100.844144" lat="15.020218">
                <ele>96.749878</ele>
                <time>2013-02-24T05:15:51Z</time>
            </trkpt>
            <trkpt lon="100.843362" lat="15.019366">
                <ele>98.191895</ele>
                <time>2013-02-24T05:16:22Z</time>
            </trkpt>
            <trkpt lon="100.842973" lat="15.018931">
                <ele>97.230469</ele>
                <time>2013-02-24T05:16:38Z</time>
            </trkpt>
            <trkpt lon="100.842732" lat="15.018515">
                <ele>100.114502</ele>
                <time>2013-02-24T05:16:51Z</time>
            </trkpt>
            <trkpt lon="100.842723" lat="15.018009">
                <ele>106.363037</ele>
                <time>2013-02-24T05:17:04Z</time>
            </trkpt>
            <trkpt lon="100.842868" lat="15.017814">
                <ele>107.805054</ele>
                <time>2013-02-24T05:17:11Z</time>
            </trkpt>
            <trkpt lon="100.843039" lat="15.017845">
                <ele>108.285645</ele>
                <time>2013-02-24T05:17:15Z</time>
            </trkpt>
            <trkpt lon="100.843342" lat="15.018056">
                <ele>107.324341</ele>
                <time>2013-02-24T05:17:22Z</time>
            </trkpt>
            <trkpt lon="100.843563" lat="15.018012">
                <ele>105.882446</ele>
                <time>2013-02-24T05:17:28Z</time>
            </trkpt>
            <trkpt lon="100.843749" lat="15.016838">
                <ele>113.572998</ele>
                <time>2013-02-24T05:17:59Z</time>
            </trkpt>
            <trkpt lon="100.844008" lat="15.015798">
                <ele>115.495605</ele>
                <time>2013-02-24T05:18:26Z</time>
            </trkpt>
            <trkpt lon="100.843644" lat="15.014756">
                <ele>115.976196</ele>
                <time>2013-02-24T05:18:58Z</time>
            </trkpt>
            <trkpt lon="100.843583" lat="15.014120">
                <ele>116.456787</ele>
                <time>2013-02-24T05:19:17Z</time>
            </trkpt>
            <trkpt lon="100.843764" lat="15.013632">
                <ele>119.340820</ele>
                <time>2013-02-24T05:19:31Z</time>
            </trkpt>
            <trkpt lon="100.845100" lat="15.012390">
                <ele>122.224731</ele>
                <time>2013-02-24T05:20:21Z</time>
            </trkpt>
            <trkpt lon="100.845480" lat="15.011907">
                <ele>125.589355</ele>
                <time>2013-02-24T05:20:44Z</time>
            </trkpt>
            <trkpt lon="100.845219" lat="15.011310">
                <ele>127.992554</ele>
                <time>2013-02-24T05:21:17Z</time>
            </trkpt>
            <trkpt lon="100.845465" lat="15.010904">
                <ele>126.069946</ele>
                <time>2013-02-24T05:21:32Z</time>
            </trkpt>
            <trkpt lon="100.847455" lat="15.008748">
                <ele>125.108765</ele>
                <time>2013-02-24T05:22:18Z</time>
            </trkpt>
            <trkpt lon="100.848071" lat="15.008684">
                <ele>131.357300</ele>
                <time>2013-02-24T05:22:41Z</time>
            </trkpt>
            <trkpt lon="100.847758" lat="15.008469">
                <ele>131.837891</ele>
                <time>2013-02-24T05:22:57Z</time>
            </trkpt>
            <trkpt lon="100.847753" lat="15.008352">
                <ele>132.318603</ele>
                <time>2013-02-24T05:23:01Z</time>
            </trkpt>
            <trkpt lon="100.848088" lat="15.007841">
                <ele>136.163940</ele>
                <time>2013-02-24T05:23:22Z</time>
            </trkpt>
            <trkpt lon="100.848200" lat="15.007820">
                <ele>135.683106</ele>
                <time>2013-02-24T05:23:31Z</time>
            </trkpt>
        </trkseg>
    </trk>
</gpx>